sensor_id;sensor_type;location;lat;lon;timestamp;temperature;humidity
728;DHT22;347;48.780;9.158;2022-12-13T00:01:30;2.30;22.10
728;DHT22;347;48.780;9.158;2022-12-13T00:03:57;2.20;22.50
728;DHT22;347;48.780;9.158;2022-12-13T00:06:23;2.20;22.80
728;DHT22;347;48.780;9.158;2022-12-13T00:08:48;2.20;22.70
728;DHT22;347;48.780;9.158;2022-12-13T00:11:14;2.10;22.90
728;DHT22;347;48.780;9.158;2022-12-13T00:13:41;2.20;23.30
728;DHT22;347;48.780;9.158;2022-12-13T00:16:11;2.30;22.40
728;DHT22;347;48.780;9.158;2022-12-13T00:18:37;2.20;22.40
728;DHT22;347;48.780;9.158;2022-12-13T00:21:12;2.10;22.90
728;DHT22;347;48.780;9.158;2022-12-13T00:23:38;2.10;22.70
728;DHT22;347;48.780;9.158;2022-12-13T00:26:10;2.20;23.00
728;DHT22;347;48.780;9.158;2022-12-13T00:28:36;2.30;22.70
728;DHT22;347;48.780;9.158;2022-12-13T00:31:02;2.20;22.60
728;DHT22;347;48.780;9.158;2022-12-13T00:33:28;2.20;22.50
728;DHT22;347;48.780;9.158;2022-12-13T00:35:54;2.20;22.90
728;DHT22;347;48.780;9.158;2022-12-13T00:38:21;2.20;22.60
728;DHT22;347;48.780;9.158;2022-12-13T00:40:47;2.10;22.90
728;DHT22;347;48.780;9.158;2022-12-13T00:43:12;2.00;22.80
728;DHT22;347;48.780;9.158;2022-12-13T00:45:38;2.00;22.80
728;DHT22;347;48.780;9.158;2022-12-13T00:48:04;1.80;23.00
728;DHT22;347;48.780;9.158;2022-12-13T00:50:30;1.90;23.40
728;DHT22;347;48.780;9.158;2022-12-13T00:52:58;1.90;23.40
728;DHT22;347;48.780;9.158;2022-12-13T00:55:23;2.10;23.10
728;DHT22;347;48.780;9.158;2022-12-13T00:57:49;2.00;23.00
728;DHT22;347;48.780;9.158;2022-12-13T01:00:14;2.00;23.00
728;DHT22;347;48.780;9.158;2022-12-13T01:02:40;2.20;22.70
728;DHT22;347;48.780;9.158;2022-12-13T01:05:08;2.20;22.30
728;DHT22;347;48.780;9.158;2022-12-13T01:07:35;2.10;22.60
728;DHT22;347;48.780;9.158;2022-12-13T01:10:00;2.30;22.60
728;DHT22;347;48.780;9.158;2022-12-13T01:12:26;2.20;22.40
728;DHT22;347;48.780;9.158;2022-12-13T01:14:51;2.30;23.20
728;DHT22;347;48.780;9.158;2022-12-13T01:17:17;2.40;22.40
728;DHT22;347;48.780;9.158;2022-12-13T01:19:43;2.30;22.20
728;DHT22;347;48.780;9.158;2022-12-13T01:22:08;2.20;22.60
728;DHT22;347;48.780;9.158;2022-12-13T01:24:36;2.30;22.80
728;DHT22;347;48.780;9.158;2022-12-13T01:27:02;2.30;22.80
728;DHT22;347;48.780;9.158;2022-12-13T01:29:27;2.20;22.80
728;DHT22;347;48.780;9.158;2022-12-13T01:31:53;2.10;22.70
728;DHT22;347;48.780;9.158;2022-12-13T01:34:21;1.70;23.60
728;DHT22;347;48.780;9.158;2022-12-13T01:36:47;1.60;24.30
728;DHT22;347;48.780;9.158;2022-12-13T01:39:16;1.60;23.80
728;DHT22;347;48.780;9.158;2022-12-13T01:41:43;1.30;24.20
728;DHT22;347;48.780;9.158;2022-12-13T01:47:13;1.20;24.90
728;DHT22;347;48.780;9.158;2022-12-13T01:49:40;1.20;25.10
728;DHT22;347;48.780;9.158;2022-12-13T01:52:08;1.40;25.00
728;DHT22;347;48.780;9.158;2022-12-13T01:54:37;1.50;24.30
728;DHT22;347;48.780;9.158;2022-12-13T01:57:06;1.60;24.20
728;DHT22;347;48.780;9.158;2022-12-13T01:59:36;1.60;24.00
728;DHT22;347;48.780;9.158;2022-12-13T02:02:05;1.60;24.20
728;DHT22;347;48.780;9.158;2022-12-13T02:07:13;1.40;23.90
728;DHT22;347;48.780;9.158;2022-12-13T02:09:40;1.00;25.10
728;DHT22;347;48.780;9.158;2022-12-13T02:12:06;1.00;26.10
728;DHT22;347;48.780;9.158;2022-12-13T02:14:34;1.20;25.40
728;DHT22;347;48.780;9.158;2022-12-13T02:17:26;1.30;24.60
728;DHT22;347;48.780;9.158;2022-12-13T02:30:28;1.00;26.10
728;DHT22;347;48.780;9.158;2022-12-13T02:33:33;1.40;24.90
728;DHT22;347;48.780;9.158;2022-12-13T02:36:19;1.80;24.00
728;DHT22;347;48.780;9.158;2022-12-13T02:39:06;2.00;23.30
728;DHT22;347;48.780;9.158;2022-12-13T02:42:02;1.60;23.10
728;DHT22;347;48.780;9.158;2022-12-13T02:44:35;1.60;24.30
728;DHT22;347;48.780;9.158;2022-12-13T02:47:04;1.90;23.60
728;DHT22;347;48.780;9.158;2022-12-13T02:49:34;2.00;22.60
728;DHT22;347;48.780;9.158;2022-12-13T02:52:02;1.70;23.60
728;DHT22;347;48.780;9.158;2022-12-13T02:54:29;1.70;23.50
728;DHT22;347;48.780;9.158;2022-12-13T02:56:56;1.60;23.80
728;DHT22;347;48.780;9.158;2022-12-13T02:59:25;1.70;23.50
728;DHT22;347;48.780;9.158;2022-12-13T03:02:15;2.00;22.90
728;DHT22;347;48.780;9.158;2022-12-13T03:10:32;2.60;21.50
728;DHT22;347;48.780;9.158;2022-12-13T03:13:06;2.70;21.30
728;DHT22;347;48.780;9.158;2022-12-13T03:15:55;2.70;21.20
728;DHT22;347;48.780;9.158;2022-12-13T03:18:23;2.80;20.50
728;DHT22;347;48.780;9.158;2022-12-13T03:23:19;2.90;20.60
728;DHT22;347;48.780;9.158;2022-12-13T03:25:48;2.90;20.20
728;DHT22;347;48.780;9.158;2022-12-13T03:28:14;2.60;20.70
728;DHT22;347;48.780;9.158;2022-12-13T03:30:39;2.30;21.40
728;DHT22;347;48.780;9.158;2022-12-13T03:33:05;2.30;21.50
728;DHT22;347;48.780;9.158;2022-12-13T03:35:31;2.30;21.00
728;DHT22;347;48.780;9.158;2022-12-13T03:37:57;2.10;21.70
728;DHT22;347;48.780;9.158;2022-12-13T03:40:22;2.20;21.50
728;DHT22;347;48.780;9.158;2022-12-13T03:42:48;2.30;21.20
728;DHT22;347;48.780;9.158;2022-12-13T03:45:14;2.50;20.80
728;DHT22;347;48.780;9.158;2022-12-13T03:47:39;2.60;20.40
728;DHT22;347;48.780;9.158;2022-12-13T03:50:05;2.70;20.20
728;DHT22;347;48.780;9.158;2022-12-13T03:52:31;2.80;19.90
728;DHT22;347;48.780;9.158;2022-12-13T03:54:56;2.80;19.70
728;DHT22;347;48.780;9.158;2022-12-13T03:57:22;2.70;20.20
728;DHT22;347;48.780;9.158;2022-12-13T03:59:47;2.20;21.30
728;DHT22;347;48.780;9.158;2022-12-13T04:02:13;1.90;21.20
728;DHT22;347;48.780;9.158;2022-12-13T04:04:38;1.80;21.80
728;DHT22;347;48.780;9.158;2022-12-13T04:07:04;1.50;22.90
728;DHT22;347;48.780;9.158;2022-12-13T04:09:29;1.70;22.30
728;DHT22;347;48.780;9.158;2022-12-13T04:11:55;2.00;21.80
728;DHT22;347;48.780;9.158;2022-12-13T04:14:39;2.30;21.60
728;DHT22;347;48.780;9.158;2022-12-13T04:17:04;2.60;20.60
728;DHT22;347;48.780;9.158;2022-12-13T04:19:30;2.70;20.10
728;DHT22;347;48.780;9.158;2022-12-13T04:21:55;2.80;19.40
728;DHT22;347;48.780;9.158;2022-12-13T04:24:22;2.90;19.50
728;DHT22;347;48.780;9.158;2022-12-13T04:26:48;3.00;19.70
728;DHT22;347;48.780;9.158;2022-12-13T04:29:14;2.80;19.70
728;DHT22;347;48.780;9.158;2022-12-13T04:31:39;2.40;19.90
728;DHT22;347;48.780;9.158;2022-12-13T04:34:05;2.40;20.90
728;DHT22;347;48.780;9.158;2022-12-13T04:36:31;2.60;20.30
728;DHT22;347;48.780;9.158;2022-12-13T04:38:56;2.70;19.80
728;DHT22;347;48.780;9.158;2022-12-13T04:41:22;2.90;19.50
728;DHT22;347;48.780;9.158;2022-12-13T04:43:52;3.00;19.50
728;DHT22;347;48.780;9.158;2022-12-13T04:46:19;3.00;19.20
728;DHT22;347;48.780;9.158;2022-12-13T04:48:44;3.10;19.00
728;DHT22;347;48.780;9.158;2022-12-13T04:51:10;3.10;18.90
728;DHT22;347;48.780;9.158;2022-12-13T04:53:36;3.10;18.90
728;DHT22;347;48.780;9.158;2022-12-13T04:56:03;3.20;19.00
728;DHT22;347;48.780;9.158;2022-12-13T04:58:29;3.20;18.80
728;DHT22;347;48.780;9.158;2022-12-13T05:00:54;3.20;18.70
728;DHT22;347;48.780;9.158;2022-12-13T05:03:20;3.30;18.40
728;DHT22;347;48.780;9.158;2022-12-13T05:05:46;3.30;18.40
728;DHT22;347;48.780;9.158;2022-12-13T05:08:11;3.20;18.40
728;DHT22;347;48.780;9.158;2022-12-13T05:10:37;3.20;18.60
728;DHT22;347;48.780;9.158;2022-12-13T05:13:03;3.20;18.70
728;DHT22;347;48.780;9.158;2022-12-13T05:15:29;3.10;18.80
728;DHT22;347;48.780;9.158;2022-12-13T05:18:02;3.10;18.70
728;DHT22;347;48.780;9.158;2022-12-13T05:20:28;3.10;18.60
728;DHT22;347;48.780;9.158;2022-12-13T05:22:57;3.10;18.90
728;DHT22;347;48.780;9.158;2022-12-13T05:25:26;3.10;19.60
728;DHT22;347;48.780;9.158;2022-12-13T05:27:52;3.00;19.00
728;DHT22;347;48.780;9.158;2022-12-13T05:30:18;2.90;19.10
728;DHT22;347;48.780;9.158;2022-12-13T05:32:44;2.90;18.90
728;DHT22;347;48.780;9.158;2022-12-13T05:35:14;2.90;18.80
728;DHT22;347;48.780;9.158;2022-12-13T05:37:40;2.80;18.50
728;DHT22;347;48.780;9.158;2022-12-13T05:40:06;2.70;19.40
728;DHT22;347;48.780;9.158;2022-12-13T05:42:32;2.70;18.90
728;DHT22;347;48.780;9.158;2022-12-13T05:44:58;2.70;18.70
728;DHT22;347;48.780;9.158;2022-12-13T05:47:23;2.80;18.90
728;DHT22;347;48.780;9.158;2022-12-13T05:49:49;2.80;18.50
728;DHT22;347;48.780;9.158;2022-12-13T05:52:18;2.80;18.60
728;DHT22;347;48.780;9.158;2022-12-13T05:54:44;2.80;20.00
728;DHT22;347;48.780;9.158;2022-12-13T05:57:10;2.80;20.00
728;DHT22;347;48.780;9.158;2022-12-13T05:59:36;2.80;19.30
728;DHT22;347;48.780;9.158;2022-12-13T06:02:02;2.80;19.50
728;DHT22;347;48.780;9.158;2022-12-13T06:04:27;2.80;19.10
728;DHT22;347;48.780;9.158;2022-12-13T06:06:53;2.70;19.00
728;DHT22;347;48.780;9.158;2022-12-13T06:09:19;2.70;18.90
728;DHT22;347;48.780;9.158;2022-12-13T06:11:45;2.60;18.90
728;DHT22;347;48.780;9.158;2022-12-13T06:14:11;2.70;18.60
728;DHT22;347;48.780;9.158;2022-12-13T06:16:36;2.60;19.30
728;DHT22;347;48.780;9.158;2022-12-13T06:19:03;2.60;19.00
728;DHT22;347;48.780;9.158;2022-12-13T06:21:30;2.60;19.00
728;DHT22;347;48.780;9.158;2022-12-13T06:23:55;2.60;18.80
728;DHT22;347;48.780;9.158;2022-12-13T06:26:21;2.70;18.60
728;DHT22;347;48.780;9.158;2022-12-13T06:28:46;2.70;18.90
728;DHT22;347;48.780;9.158;2022-12-13T06:31:12;2.60;18.80
728;DHT22;347;48.780;9.158;2022-12-13T06:33:37;2.60;19.30
728;DHT22;347;48.780;9.158;2022-12-13T06:36:04;2.70;19.00
728;DHT22;347;48.780;9.158;2022-12-13T06:38:30;2.70;19.00
728;DHT22;347;48.780;9.158;2022-12-13T06:41:06;2.80;18.40
728;DHT22;347;48.780;9.158;2022-12-13T06:43:32;2.70;18.50
728;DHT22;347;48.780;9.158;2022-12-13T06:45:57;2.70;19.20
728;DHT22;347;48.780;9.158;2022-12-13T06:48:23;2.80;18.60
728;DHT22;347;48.780;9.158;2022-12-13T06:50:48;2.90;18.50
728;DHT22;347;48.780;9.158;2022-12-13T06:53:14;2.70;18.50
728;DHT22;347;48.780;9.158;2022-12-13T06:55:39;2.80;18.40
728;DHT22;347;48.780;9.158;2022-12-13T06:58:05;2.80;18.40
728;DHT22;347;48.780;9.158;2022-12-13T07:00:31;2.80;18.20
728;DHT22;347;48.780;9.158;2022-12-13T07:02:56;2.80;17.90
728;DHT22;347;48.780;9.158;2022-12-13T07:05:22;2.90;17.90
728;DHT22;347;48.780;9.158;2022-12-13T07:07:48;2.90;17.90
728;DHT22;347;48.780;9.158;2022-12-13T07:10:13;2.90;17.80
728;DHT22;347;48.780;9.158;2022-12-13T07:12:39;2.90;18.20
728;DHT22;347;48.780;9.158;2022-12-13T07:15:05;2.80;18.00
728;DHT22;347;48.780;9.158;2022-12-13T07:17:31;2.70;18.00
728;DHT22;347;48.780;9.158;2022-12-13T07:19:56;2.70;17.70
728;DHT22;347;48.780;9.158;2022-12-13T07:22:22;2.70;17.80
728;DHT22;347;48.780;9.158;2022-12-13T07:24:48;2.70;17.80
728;DHT22;347;48.780;9.158;2022-12-13T07:27:13;2.70;17.90
728;DHT22;347;48.780;9.158;2022-12-13T07:29:39;2.60;17.90
728;DHT22;347;48.780;9.158;2022-12-13T07:32:04;2.60;18.20
728;DHT22;347;48.780;9.158;2022-12-13T07:34:30;2.60;18.00
728;DHT22;347;48.780;9.158;2022-12-13T07:36:55;2.50;17.80
728;DHT22;347;48.780;9.158;2022-12-13T07:39:23;2.40;18.20
728;DHT22;347;48.780;9.158;2022-12-13T07:41:53;2.50;18.10
728;DHT22;347;48.780;9.158;2022-12-13T07:44:19;2.60;17.90
728;DHT22;347;48.780;9.158;2022-12-13T07:46:44;2.50;18.00
728;DHT22;347;48.780;9.158;2022-12-13T07:49:11;2.50;18.30
728;DHT22;347;48.780;9.158;2022-12-13T07:51:36;2.50;18.50
728;DHT22;347;48.780;9.158;2022-12-13T07:54:02;2.50;18.50
728;DHT22;347;48.780;9.158;2022-12-13T07:56:27;2.50;18.80
728;DHT22;347;48.780;9.158;2022-12-13T07:58:53;2.50;18.30
728;DHT22;347;48.780;9.158;2022-12-13T08:01:19;2.60;18.00
728;DHT22;347;48.780;9.158;2022-12-13T08:03:47;2.60;18.30
728;DHT22;347;48.780;9.158;2022-12-13T08:06:12;2.60;18.10
728;DHT22;347;48.780;9.158;2022-12-13T08:08:38;2.70;18.10
728;DHT22;347;48.780;9.158;2022-12-13T08:13:31;2.50;18.50
728;DHT22;347;48.780;9.158;2022-12-13T08:16:02;2.50;18.20
728;DHT22;347;48.780;9.158;2022-12-13T08:18:28;2.70;18.00
728;DHT22;347;48.780;9.158;2022-12-13T08:21:05;2.80;17.80
728;DHT22;347;48.780;9.158;2022-12-13T08:23:32;2.80;17.70
728;DHT22;347;48.780;9.158;2022-12-13T08:25:59;2.90;17.50
728;DHT22;347;48.780;9.158;2022-12-13T08:28:25;2.80;17.60
728;DHT22;347;48.780;9.158;2022-12-13T08:30:50;2.70;18.10
728;DHT22;347;48.780;9.158;2022-12-13T08:33:17;2.80;18.00
728;DHT22;347;48.780;9.158;2022-12-13T08:35:43;2.80;17.60
728;DHT22;347;48.780;9.158;2022-12-13T08:38:09;2.80;17.40
728;DHT22;347;48.780;9.158;2022-12-13T08:40:35;2.90;17.40
728;DHT22;347;48.780;9.158;2022-12-13T08:43:01;2.80;17.20
728;DHT22;347;48.780;9.158;2022-12-13T08:45:27;2.80;17.60
728;DHT22;347;48.780;9.158;2022-12-13T08:47:56;2.80;17.80
728;DHT22;347;48.780;9.158;2022-12-13T08:50:22;2.80;18.50
728;DHT22;347;48.780;9.158;2022-12-13T08:52:47;2.80;19.40
728;DHT22;347;48.780;9.158;2022-12-13T08:55:15;2.90;19.90
728;DHT22;347;48.780;9.158;2022-12-13T08:57:42;3.00;19.20
728;DHT22;347;48.780;9.158;2022-12-13T09:00:11;3.00;18.70
728;DHT22;347;48.780;9.158;2022-12-13T09:02:36;3.10;17.90
728;DHT22;347;48.780;9.158;2022-12-13T09:05:02;3.10;17.50
728;DHT22;347;48.780;9.158;2022-12-13T09:07:28;2.80;17.70
728;DHT22;347;48.780;9.158;2022-12-13T09:09:54;2.70;18.10
728;DHT22;347;48.780;9.158;2022-12-13T09:12:19;2.80;18.10
728;DHT22;347;48.780;9.158;2022-12-13T09:14:45;2.80;18.10
728;DHT22;347;48.780;9.158;2022-12-13T09:17:13;2.60;17.90
728;DHT22;347;48.780;9.158;2022-12-13T09:19:39;2.60;18.30
728;DHT22;347;48.780;9.158;2022-12-13T09:22:04;2.70;18.20
728;DHT22;347;48.780;9.158;2022-12-13T09:24:30;2.80;17.90
728;DHT22;347;48.780;9.158;2022-12-13T09:26:56;2.80;18.00
728;DHT22;347;48.780;9.158;2022-12-13T09:29:21;2.90;17.80
728;DHT22;347;48.780;9.158;2022-12-13T09:31:47;2.90;17.80
728;DHT22;347;48.780;9.158;2022-12-13T09:34:12;2.90;17.50
728;DHT22;347;48.780;9.158;2022-12-13T09:36:38;2.90;17.10
728;DHT22;347;48.780;9.158;2022-12-13T09:39:03;2.50;17.50
728;DHT22;347;48.780;9.158;2022-12-13T09:41:49;2.00;18.80
728;DHT22;347;48.780;9.158;2022-12-13T09:46:45;2.30;18.80
728;DHT22;347;48.780;9.158;2022-12-13T09:49:16;2.30;18.80
728;DHT22;347;48.780;9.158;2022-12-13T09:51:52;2.40;19.20
728;DHT22;347;48.780;9.158;2022-12-13T09:54:22;2.40;19.10
728;DHT22;347;48.780;9.158;2022-12-13T09:56:49;2.60;17.70
728;DHT22;347;48.780;9.158;2022-12-13T09:59:32;2.60;17.40
728;DHT22;347;48.780;9.158;2022-12-13T10:02:14;2.50;17.70
728;DHT22;347;48.780;9.158;2022-12-13T10:04:40;2.60;17.70
728;DHT22;347;48.780;9.158;2022-12-13T10:07:17;2.70;17.90
728;DHT22;347;48.780;9.158;2022-12-13T10:09:44;2.90;19.50
728;DHT22;347;48.780;9.158;2022-12-13T10:12:14;2.90;20.50
728;DHT22;347;48.780;9.158;2022-12-13T10:15:07;3.00;21.10
728;DHT22;347;48.780;9.158;2022-12-13T10:17:37;3.00;19.50
728;DHT22;347;48.780;9.158;2022-12-13T10:20:06;2.70;19.10
728;DHT22;347;48.780;9.158;2022-12-13T10:36:34;2.80;24.50
728;DHT22;347;48.780;9.158;2022-12-13T10:39:01;2.70;17.80
728;DHT22;347;48.780;9.158;2022-12-13T10:41:34;2.60;18.60
728;DHT22;347;48.780;9.158;2022-12-13T10:47:00;2.40;18.60
728;DHT22;347;48.780;9.158;2022-12-13T10:49:39;2.20;18.80
728;DHT22;347;48.780;9.158;2022-12-13T10:52:29;2.20;18.30
728;DHT22;347;48.780;9.158;2022-12-13T10:54:58;2.00;18.90
728;DHT22;347;48.780;9.158;2022-12-13T10:57:26;1.80;19.40
728;DHT22;347;48.780;9.158;2022-12-13T10:59:52;2.00;19.30
728;DHT22;347;48.780;9.158;2022-12-13T11:02:36;2.30;19.10
728;DHT22;347;48.780;9.158;2022-12-13T11:05:25;2.40;18.50
728;DHT22;347;48.780;9.158;2022-12-13T11:07:52;2.30;18.40
728;DHT22;347;48.780;9.158;2022-12-13T11:10:26;2.20;19.10
728;DHT22;347;48.780;9.158;2022-12-13T11:13:01;2.20;19.00
728;DHT22;347;48.780;9.158;2022-12-13T11:15:28;2.00;18.90
728;DHT22;347;48.780;9.158;2022-12-13T11:18:01;1.90;19.20
728;DHT22;347;48.780;9.158;2022-12-13T11:20:33;1.80;18.80
728;DHT22;347;48.780;9.158;2022-12-13T11:23:25;2.00;18.90
728;DHT22;347;48.780;9.158;2022-12-13T11:25:57;2.20;19.00
728;DHT22;347;48.780;9.158;2022-12-13T11:28:50;2.20;18.60
728;DHT22;347;48.780;9.158;2022-12-13T11:39:49;2.20;19.10
728;DHT22;347;48.780;9.158;2022-12-13T11:45:44;2.90;18.50
728;DHT22;347;48.780;9.158;2022-12-13T11:48:37;2.60;18.60
728;DHT22;347;48.780;9.158;2022-12-13T11:51:07;2.90;18.10
728;DHT22;347;48.780;9.158;2022-12-13T11:56:21;3.00;17.70
728;DHT22;347;48.780;9.158;2022-12-13T12:01:46;2.90;17.90
728;DHT22;347;48.780;9.158;2022-12-13T12:04:42;3.10;17.70
728;DHT22;347;48.780;9.158;2022-12-13T12:07:13;3.40;17.80
728;DHT22;347;48.780;9.158;2022-12-13T12:09:46;3.50;17.20
728;DHT22;347;48.780;9.158;2022-12-13T12:12:35;3.60;17.30
728;DHT22;347;48.780;9.158;2022-12-13T12:15:13;3.50;17.50
728;DHT22;347;48.780;9.158;2022-12-13T12:17:42;3.40;17.60
728;DHT22;347;48.780;9.158;2022-12-13T12:20:19;3.60;18.40
728;DHT22;347;48.780;9.158;2022-12-13T12:25:54;3.80;17.60
728;DHT22;347;48.780;9.158;2022-12-13T12:28:27;3.80;17.00
728;DHT22;347;48.780;9.158;2022-12-13T12:31:09;3.80;17.30
728;DHT22;347;48.780;9.158;2022-12-13T12:33:53;3.90;17.00
728;DHT22;347;48.780;9.158;2022-12-13T12:47:30;3.80;17.20
728;DHT22;347;48.780;9.158;2022-12-13T12:50:05;3.90;17.20
728;DHT22;347;48.780;9.158;2022-12-13T12:53:02;3.90;16.90
728;DHT22;347;48.780;9.158;2022-12-13T12:58:18;3.70;18.30
728;DHT22;347;48.780;9.158;2022-12-13T13:00:56;3.60;17.70
728;DHT22;347;48.780;9.158;2022-12-13T13:03:27;3.50;18.10
728;DHT22;347;48.780;9.158;2022-12-13T13:06:19;3.60;17.90
728;DHT22;347;48.780;9.158;2022-12-13T13:09:02;3.70;17.90
728;DHT22;347;48.780;9.158;2022-12-13T13:11:33;3.80;17.60
728;DHT22;347;48.780;9.158;2022-12-13T13:14:25;3.90;17.60
728;DHT22;347;48.780;9.158;2022-12-13T13:16:51;4.00;17.10
728;DHT22;347;48.780;9.158;2022-12-13T13:21:59;4.10;17.00
728;DHT22;347;48.780;9.158;2022-12-13T13:24:26;4.10;17.10
728;DHT22;347;48.780;9.158;2022-12-13T13:26:57;4.20;16.90
728;DHT22;347;48.780;9.158;2022-12-13T13:34:26;4.30;16.50
728;DHT22;347;48.780;9.158;2022-12-13T13:36:52;4.30;16.50
728;DHT22;347;48.780;9.158;2022-12-13T13:41:53;4.40;16.50
728;DHT22;347;48.780;9.158;2022-12-13T14:22:12;4.20;15.10
728;DHT22;347;48.780;9.158;2022-12-13T14:27:38;4.20;15.40
728;DHT22;347;48.780;9.158;2022-12-13T14:30:16;4.20;15.10
728;DHT22;347;48.780;9.158;2022-12-13T14:32:42;4.20;15.30
728;DHT22;347;48.780;9.158;2022-12-13T14:35:28;4.30;15.20
728;DHT22;347;48.780;9.158;2022-12-13T14:38:05;4.20;15.20
728;DHT22;347;48.780;9.158;2022-12-13T14:40:32;4.30;15.80
728;DHT22;347;48.780;9.158;2022-12-13T14:42:58;4.40;15.90
728;DHT22;347;48.780;9.158;2022-12-13T14:45:28;4.40;16.60
728;DHT22;347;48.780;9.158;2022-12-13T14:47:59;4.40;16.30
728;DHT22;347;48.780;9.158;2022-12-13T14:50:27;4.50;16.00
728;DHT22;347;48.780;9.158;2022-12-13T14:52:55;4.50;16.00
728;DHT22;347;48.780;9.158;2022-12-13T14:57:53;4.70;15.40
728;DHT22;347;48.780;9.158;2022-12-13T15:00:32;4.70;15.40
728;DHT22;347;48.780;9.158;2022-12-13T15:03:00;4.70;15.30
728;DHT22;347;48.780;9.158;2022-12-13T15:05:27;4.70;15.20
728;DHT22;347;48.780;9.158;2022-12-13T15:07:54;4.50;14.90
728;DHT22;347;48.780;9.158;2022-12-13T15:10:41;4.20;14.90
728;DHT22;347;48.780;9.158;2022-12-13T15:15:51;4.20;15.20
728;DHT22;347;48.780;9.158;2022-12-13T15:18:28;4.20;14.70
728;DHT22;347;48.780;9.158;2022-12-13T15:20:55;4.30;14.70
728;DHT22;347;48.780;9.158;2022-12-13T15:23:28;4.40;14.30
728;DHT22;347;48.780;9.158;2022-12-13T15:26:01;4.30;14.20
728;DHT22;347;48.780;9.158;2022-12-13T15:28:30;4.30;15.10
728;DHT22;347;48.780;9.158;2022-12-13T15:30:58;4.20;14.20
728;DHT22;347;48.780;9.158;2022-12-13T15:33:26;4.20;14.10
728;DHT22;347;48.780;9.158;2022-12-13T15:36:25;4.10;14.80
728;DHT22;347;48.780;9.158;2022-12-13T15:41:26;4.20;14.20
728;DHT22;347;48.780;9.158;2022-12-13T15:43:55;4.10;14.20
728;DHT22;347;48.780;9.158;2022-12-13T15:46:35;4.20;14.70
728;DHT22;347;48.780;9.158;2022-12-13T15:49:07;4.00;14.50
728;DHT22;347;48.780;9.158;2022-12-13T15:54:38;3.70;14.90
728;DHT22;347;48.780;9.158;2022-12-13T15:59:37;3.80;15.10
728;DHT22;347;48.780;9.158;2022-12-13T16:04:38;3.70;14.90
728;DHT22;347;48.780;9.158;2022-12-13T16:07:04;3.70;15.10
728;DHT22;347;48.780;9.158;2022-12-13T16:09:33;3.80;14.90
728;DHT22;347;48.780;9.158;2022-12-13T16:12:02;4.10;14.50
728;DHT22;347;48.780;9.158;2022-12-13T16:14:36;4.10;13.90
728;DHT22;347;48.780;9.158;2022-12-13T16:17:21;4.10;14.60
728;DHT22;347;48.780;9.158;2022-12-13T16:19:52;4.30;14.20
728;DHT22;347;48.780;9.158;2022-12-13T16:22:19;4.10;14.20
728;DHT22;347;48.780;9.158;2022-12-13T16:24:47;4.00;14.70
728;DHT22;347;48.780;9.158;2022-12-13T16:27:13;4.20;14.80
728;DHT22;347;48.780;9.158;2022-12-13T16:29:39;4.20;14.30
728;DHT22;347;48.780;9.158;2022-12-13T16:32:05;4.30;14.30
728;DHT22;347;48.780;9.158;2022-12-13T16:34:31;4.40;14.20
728;DHT22;347;48.780;9.158;2022-12-13T16:36:57;4.40;13.90
728;DHT22;347;48.780;9.158;2022-12-13T16:39:24;4.40;14.20
728;DHT22;347;48.780;9.158;2022-12-13T16:41:51;4.40;14.20
728;DHT22;347;48.780;9.158;2022-12-13T16:44:49;4.30;14.50
728;DHT22;347;48.780;9.158;2022-12-13T16:47:15;4.20;14.70
728;DHT22;347;48.780;9.158;2022-12-13T16:49:41;4.20;14.60
728;DHT22;347;48.780;9.158;2022-12-13T16:52:07;4.20;14.50
728;DHT22;347;48.780;9.158;2022-12-13T16:54:33;4.20;14.90
728;DHT22;347;48.780;9.158;2022-12-13T16:56:59;4.20;14.30
728;DHT22;347;48.780;9.158;2022-12-13T16:59:26;4.00;14.90
728;DHT22;347;48.780;9.158;2022-12-13T17:01:52;3.80;15.50
728;DHT22;347;48.780;9.158;2022-12-13T17:04:21;3.70;15.50
728;DHT22;347;48.780;9.158;2022-12-13T17:06:50;3.70;15.50
728;DHT22;347;48.780;9.158;2022-12-13T17:09:17;3.70;15.90
728;DHT22;347;48.780;9.158;2022-12-13T17:11:43;3.50;15.90
728;DHT22;347;48.780;9.158;2022-12-13T17:14:08;3.40;16.20
728;DHT22;347;48.780;9.158;2022-12-13T17:16:34;3.30;16.60
728;DHT22;347;48.780;9.158;2022-12-13T17:19:00;3.20;16.80
728;DHT22;347;48.780;9.158;2022-12-13T17:21:26;3.30;16.90
728;DHT22;347;48.780;9.158;2022-12-13T17:23:58;3.50;16.90
728;DHT22;347;48.780;9.158;2022-12-13T17:26:25;3.70;16.50
728;DHT22;347;48.780;9.158;2022-12-13T17:28:51;3.80;16.30
728;DHT22;347;48.780;9.158;2022-12-13T17:31:17;3.90;16.20
728;DHT22;347;48.780;9.158;2022-12-13T17:33:43;3.90;16.20
728;DHT22;347;48.780;9.158;2022-12-13T17:36:10;4.00;16.30
728;DHT22;347;48.780;9.158;2022-12-13T17:38:40;3.90;16.50
728;DHT22;347;48.780;9.158;2022-12-13T17:41:06;3.70;16.30
728;DHT22;347;48.780;9.158;2022-12-13T17:43:32;3.60;16.70
728;DHT22;347;48.780;9.158;2022-12-13T17:46:13;3.60;16.60
728;DHT22;347;48.780;9.158;2022-12-13T17:48:39;3.70;16.30
728;DHT22;347;48.780;9.158;2022-12-13T17:51:05;3.80;16.20
728;DHT22;347;48.780;9.158;2022-12-13T17:53:32;3.60;16.40
728;DHT22;347;48.780;9.158;2022-12-13T17:56:01;3.60;16.40
728;DHT22;347;48.780;9.158;2022-12-13T17:58:28;3.60;16.40
728;DHT22;347;48.780;9.158;2022-12-13T18:00:54;3.60;15.90
728;DHT22;347;48.780;9.158;2022-12-13T18:03:20;3.60;16.00
728;DHT22;347;48.780;9.158;2022-12-13T18:05:55;3.60;16.20
728;DHT22;347;48.780;9.158;2022-12-13T18:08:21;3.50;15.90
728;DHT22;347;48.780;9.158;2022-12-13T18:10:57;3.40;15.90
728;DHT22;347;48.780;9.158;2022-12-13T18:13:24;3.30;15.60
728;DHT22;347;48.780;9.158;2022-12-13T18:15:51;3.10;15.70
728;DHT22;347;48.780;9.158;2022-12-13T18:18:17;3.20;15.50
728;DHT22;347;48.780;9.158;2022-12-13T18:20:44;3.40;15.40
728;DHT22;347;48.780;9.158;2022-12-13T18:23:11;3.40;15.30
728;DHT22;347;48.780;9.158;2022-12-13T18:25:37;3.40;15.40
728;DHT22;347;48.780;9.158;2022-12-13T18:28:04;3.40;15.60
728;DHT22;347;48.780;9.158;2022-12-13T18:30:30;3.40;15.70
728;DHT22;347;48.780;9.158;2022-12-13T18:32:57;3.30;15.50
728;DHT22;347;48.780;9.158;2022-12-13T18:35:22;3.40;15.50
728;DHT22;347;48.780;9.158;2022-12-13T18:37:48;3.40;15.20
728;DHT22;347;48.780;9.158;2022-12-13T18:40:15;3.50;15.40
728;DHT22;347;48.780;9.158;2022-12-13T18:42:40;3.30;15.50
728;DHT22;347;48.780;9.158;2022-12-13T18:45:06;3.40;15.40
728;DHT22;347;48.780;9.158;2022-12-13T18:47:32;3.40;15.30
728;DHT22;347;48.780;9.158;2022-12-13T18:49:58;3.30;15.40
728;DHT22;347;48.780;9.158;2022-12-13T18:52:23;3.10;15.90
728;DHT22;347;48.780;9.158;2022-12-13T18:54:50;2.70;16.10
728;DHT22;347;48.780;9.158;2022-12-13T18:57:16;2.40;17.60
728;DHT22;347;48.780;9.158;2022-12-13T18:59:42;2.50;16.80
728;DHT22;347;48.780;9.158;2022-12-13T19:02:11;2.60;16.90
728;DHT22;347;48.780;9.158;2022-12-13T19:04:37;2.80;17.00
728;DHT22;347;48.780;9.158;2022-12-13T19:07:03;3.00;16.50
728;DHT22;347;48.780;9.158;2022-12-13T19:09:29;2.90;16.60
728;DHT22;347;48.780;9.158;2022-12-13T19:11:55;3.10;16.20
728;DHT22;347;48.780;9.158;2022-12-13T19:14:20;2.90;16.20
728;DHT22;347;48.780;9.158;2022-12-13T19:16:46;2.70;16.50
728;DHT22;347;48.780;9.158;2022-12-13T19:19:12;2.60;16.70
728;DHT22;347;48.780;9.158;2022-12-13T19:21:38;2.60;17.20
728;DHT22;347;48.780;9.158;2022-12-13T19:24:04;2.80;17.50
728;DHT22;347;48.780;9.158;2022-12-13T19:26:30;2.80;17.00
728;DHT22;347;48.780;9.158;2022-12-13T19:28:57;2.90;16.60
728;DHT22;347;48.780;9.158;2022-12-13T19:31:23;2.80;16.60